sensor_id;sensor_type;location;lat;lon;timestamp;pressure;altitude;pressure_sealevel;temperature;humidity
55263;BME280;41125;48.752;9.168;2022-07-03T00:00:14;97094.91;;;18.41;57.71
55263;BME280;41125;48.752;9.168;2022-07-03T00:00:48;97101.34;;;18.45;57.83
55263;BME280;41125;48.752;9.168;2022-07-03T00:01:19;97091.50;;;18.44;57.54
55263;BME280;41125;48.752;9.168;2022-07-03T00:01:50;97096.19;;;18.43;57.77
55263;BME280;41125;48.752;9.168;2022-07-03T00:02:21;97100.41;;;18.41;57.60
55263;BME280;41125;48.752;9.168;2022-07-03T00:02:52;97102.22;;;18.37;57.78
55263;BME280;41125;48.752;9.168;2022-07-03T00:03:23;97094.69;;;18.34;57.94
55263;BME280;41125;48.752;9.168;2022-07-03T00:03:54;97096.72;;;18.37;57.85
55263;BME280;41125;48.752;9.168;2022-07-03T00:04:25;97096.72;;;18.37;57.75
55263;BME280;41125;48.752;9.168;2022-07-03T00:04:56;97093.56;;;18.35;58.02
55263;BME280;41125;48.752;9.168;2022-07-03T00:05:27;97092.75;;;18.34;57.70
55263;BME280;41125;48.752;9.168;2022-07-03T00:05:58;97091.94;;;18.34;57.81
55263;BME280;41125;48.752;9.168;2022-07-03T00:06:30;97091.94;;;18.34;57.78
55263;BME280;41125;48.752;9.168;2022-07-03T00:07:02;97098.56;;;18.33;57.80
55263;BME280;41125;48.752;9.168;2022-07-03T00:07:34;97096.72;;;18.37;58.13
55263;BME280;41125;48.752;9.168;2022-07-03T00:08:07;97096.06;;;18.40;57.75
55263;BME280;41125;48.752;9.168;2022-07-03T00:08:38;97090.09;;;18.38;58.12
55263;BME280;41125;48.752;9.168;2022-07-03T00:09:09;97103.84;;;18.38;58.03
55263;BME280;41125;48.752;9.168;2022-07-03T00:09:40;97090.47;;;18.36;58.05
55263;BME280;41125;48.752;9.168;2022-07-03T00:10:11;97094.69;;;18.34;58.00
55263;BME280;41125;48.752;9.168;2022-07-03T00:10:42;97098.56;;;18.33;58.33
55263;BME280;41125;48.752;9.168;2022-07-03T00:11:12;97092.62;;;18.31;57.97
55263;BME280;41125;48.752;9.168;2022-07-03T00:11:44;97093.28;;;18.28;58.42
55263;BME280;41125;48.752;9.168;2022-07-03T00:12:18;97094.44;;;18.27;58.30
55263;BME280;41125;48.752;9.168;2022-07-03T00:12:49;97097.84;;;18.24;58.24
55263;BME280;41125;48.752;9.168;2022-07-03T00:13:20;97104.28;;;18.28;58.30
55263;BME280;41125;48.752;9.168;2022-07-03T00:13:51;97102.66;;;18.27;58.29
55263;BME280;41125;48.752;9.168;2022-07-03T00:14:24;97097.66;;;18.29;58.28
55263;BME280;41125;48.752;9.168;2022-07-03T00:14:55;97099.72;;;18.32;58.24
55263;BME280;41125;48.752;9.168;2022-07-03T00:15:27;97096.50;;;18.30;58.27
55263;BME280;41125;48.752;9.168;2022-07-03T00:15:58;97092.62;;;18.31;58.64
55263;BME280;41125;48.752;9.168;2022-07-03T00:16:30;97100.41;;;18.29;58.37
55263;BME280;41125;48.752;9.168;2022-07-03T00:17:01;97104.28;;;18.28;58.50
55263;BME280;41125;48.752;9.168;2022-07-03T00:17:32;97100.41;;;18.29;58.35
55263;BME280;41125;48.752;9.168;2022-07-03T00:18:03;97103.94;;;18.29;58.74
55263;BME280;41125;48.752;9.168;2022-07-03T00:18:34;97105.88;;;18.29;58.44
55263;BME280;41125;48.752;9.168;2022-07-03T00:19:05;97098.91;;;18.31;58.73
55263;BME280;41125;48.752;9.168;2022-07-03T00:19:37;97098.91;;;18.31;58.43
55263;BME280;41125;48.752;9.168;2022-07-03T00:20:09;97102.66;;;18.27;58.53
55263;BME280;41125;48.752;9.168;2022-07-03T00:20:40;97099.94;;;18.27;58.79
55263;BME280;41125;48.752;9.168;2022-07-03T00:22:14;97106.88;;;18.24;58.49
55263;BME280;41125;48.752;9.168;2022-07-03T00:22:46;97098.19;;;18.22;58.95
55263;BME280;41125;48.752;9.168;2022-07-03T00:23:18;97108.03;;;18.23;58.89
55263;BME280;41125;48.752;9.168;2022-07-03T00:24:08;97104.81;;;18.21;58.90
55263;BME280;41125;48.752;9.168;2022-07-03T00:24:44;97099.47;;;18.25;59.19
55263;BME280;41125;48.752;9.168;2022-07-03T00:25:18;97101.53;;;18.28;58.80
55263;BME280;41125;48.752;9.168;2022-07-03T00:25:49;97110.44;;;18.25;58.90
55263;BME280;41125;48.752;9.168;2022-07-03T00:26:21;97105.88;;;18.29;59.09
55263;BME280;41125;48.752;9.168;2022-07-03T00:26:52;97105.09;;;18.28;58.63
55263;BME280;41125;48.752;9.168;2022-07-03T00:27:24;97104.28;;;18.28;58.65
55263;BME280;41125;48.752;9.168;2022-07-03T00:27:55;97101.19;;;18.29;58.73
55263;BME280;41125;48.752;9.168;2022-07-03T00:28:26;97107.50;;;18.30;58.73
55263;BME280;41125;48.752;9.168;2022-07-03T00:29:00;97101.53;;;18.28;58.79
55263;BME280;41125;48.752;9.168;2022-07-03T00:29:32;97098.78;;;18.28;59.02
55263;BME280;41125;48.752;9.168;2022-07-03T00:30:07;97103.59;;;18.31;59.13
55263;BME280;41125;48.752;9.168;2022-07-03T00:30:39;97102.81;;;18.30;58.80
55263;BME280;41125;48.752;9.168;2022-07-03T00:31:10;97110.72;;;18.32;58.71
55263;BME280;41125;48.752;9.168;2022-07-03T00:31:41;97114.03;;;18.37;58.82
55263;BME280;41125;48.752;9.168;2022-07-03T00:32:14;97106.25;;;18.39;58.59
55263;BME280;41125;48.752;9.168;2022-07-03T00:32:48;97103.16;;;18.41;58.49
55263;BME280;41125;48.752;9.168;2022-07-03T00:33:22;97107.97;;;18.44;58.67
55263;BME280;41125;48.752;9.168;2022-07-03T00:33:57;97101.56;;;18.40;58.71
55263;BME280;41125;48.752;9.168;2022-07-03T00:34:28;97101.47;;;18.36;58.53
55263;BME280;41125;48.752;9.168;2022-07-03T00:34:59;97107.72;;;18.37;59.01
55263;BME280;41125;48.752;9.168;2022-07-03T00:35:32;97104.06;;;18.33;58.69
55263;BME280;41125;48.752;9.168;2022-07-03T00:36:03;97103.59;;;18.31;58.88
55263;BME280;41125;48.752;9.168;2022-07-03T00:36:35;97102.94;;;18.34;58.94
55263;BME280;41125;48.752;9.168;2022-07-03T00:37:06;97099.38;;;18.33;59.17
55263;BME280;41125;48.752;9.168;2022-07-03T00:37:38;97106.00;;;18.32;59.02
55263;BME280;41125;48.752;9.168;2022-07-03T00:38:10;97105.88;;;18.29;59.23
55263;BME280;41125;48.752;9.168;2022-07-03T00:38:41;97106.88;;;18.24;59.05
55263;BME280;41125;48.752;9.168;2022-07-03T00:39:14;97106.75;;;18.21;59.36
55263;BME280;41125;48.752;9.168;2022-07-03T00:39:46;97098.53;;;18.21;59.27
55263;BME280;41125;48.752;9.168;2022-07-03T00:40:16;97098.06;;;18.19;59.54
55263;BME280;41125;48.752;9.168;2022-07-03T00:40:47;97106.63;;;18.17;59.29
55263;BME280;41125;48.752;9.168;2022-07-03T00:41:23;97103.41;;;18.15;59.65
55263;BME280;41125;48.752;9.168;2022-07-03T00:41:59;97102.94;;;18.13;59.75
55263;BME280;41125;48.752;9.168;2022-07-03T00:42:34;97108.31;;;18.09;59.57
55263;BME280;41125;48.752;9.168;2022-07-03T00:43:08;97113.00;;;18.09;59.93
55263;BME280;41125;48.752;9.168;2022-07-03T00:43:40;97106.03;;;18.12;60.09
55263;BME280;41125;48.752;9.168;2022-07-03T00:44:10;97105.34;;;18.15;59.99
55263;BME280;41125;48.752;9.168;2022-07-03T00:44:50;97102.13;;;18.13;60.02
55263;BME280;41125;48.752;9.168;2022-07-03T00:45:22;97104.75;;;18.09;59.60
55263;BME280;41125;48.752;9.168;2022-07-03T00:45:53;97102.81;;;18.09;59.87
55263;BME280;41125;48.752;9.168;2022-07-03T00:46:25;97109.09;;;18.10;60.02
55263;BME280;41125;48.752;9.168;2022-07-03T00:46:57;97104.09;;;18.12;59.91
55263;BME280;41125;48.752;9.168;2022-07-03T00:47:29;97109.25;;;18.14;59.97
55263;BME280;41125;48.752;9.168;2022-07-03T00:48:01;97100.66;;;18.15;60.20
55263;BME280;41125;48.752;9.168;2022-07-03T00:48:33;97104.69;;;18.18;59.81
55263;BME280;41125;48.752;9.168;2022-07-03T00:49:07;97108.56;;;18.17;59.84
55263;BME280;41125;48.752;9.168;2022-07-03T00:49:40;97099.06;;;18.14;60.11
55263;BME280;41125;48.752;9.168;2022-07-03T00:50:14;97104.41;;;18.11;59.89
55263;BME280;41125;48.752;9.168;2022-07-03T00:50:46;97111.84;;;18.10;60.23
55263;BME280;41125;48.752;9.168;2022-07-03T00:51:21;97112.84;;;18.05;60.07
55263;BME280;41125;48.752;9.168;2022-07-03T00:51:53;97100.53;;;18.12;60.01
55263;BME280;41125;48.752;9.168;2022-07-03T00:52:24;97107.16;;;18.11;60.26
55263;BME280;41125;48.752;9.168;2022-07-03T00:52:59;97102.81;;;18.09;60.27
55263;BME280;41125;48.752;9.168;2022-07-03T00:53:31;97102.00;;;18.09;60.23
55263;BME280;41125;48.752;9.168;2022-07-03T00:54:03;97104.87;;;18.13;60.03
55263;BME280;41125;48.752;9.168;2022-07-03T00:54:34;97101.19;;;18.08;60.18
55263;BME280;41125;48.752;9.168;2022-07-03T00:55:07;97112.84;;;18.05;60.26
55263;BME280;41125;48.752;9.168;2022-07-03T00:55:39;97100.97;;;18.01;60.45
55263;BME280;41125;48.752;9.168;2022-07-03T00:56:13;97099.47;;;18.04;60.42
55263;BME280;41125;48.752;9.168;2022-07-03T00:56:46;97105.75;;;18.04;60.54
55263;BME280;41125;48.752;9.168;2022-07-03T00:57:20;97098.66;;;18.03;60.45
55263;BME280;41125;48.752;9.168;2022-07-03T00:57:52;97108.72;;;17.99;60.28
55263;BME280;41125;48.752;9.168;2022-07-03T00:58:25;97109.41;;;17.96;60.50
55263;BME280;41125;48.752;9.168;2022-07-03T00:58:57;97108.12;;;17.94;60.90
55263;BME280;41125;48.752;9.168;2022-07-03T00:59:28;97104.56;;;17.93;60.72
55263;BME280;41125;48.752;9.168;2022-07-03T00:59:59;97104.09;;;17.91;60.86
55263;BME280;41125;48.752;9.168;2022-07-03T01:00:31;97109.59;;;17.91;60.67
55263;BME280;41125;48.752;9.168;2022-07-03T01:01:06;97098.16;;;17.89;61.03
55263;BME280;41125;48.752;9.168;2022-07-03T01:01:38;97106.84;;;17.91;60.81
55263;BME280;41125;48.752;9.168;2022-07-03T01:02:13;97104.91;;;17.92;61.14
55263;BME280;41125;48.752;9.168;2022-07-03T01:02:51;97102.50;;;17.90;60.88
55263;BME280;41125;48.752;9.168;2022-07-03T01:03:24;97104.84;;;18.00;61.23
55263;BME280;41125;48.752;9.168;2022-07-03T01:04:54;97109.41;;;17.96;61.18
55263;BME280;41125;48.752;9.168;2022-07-03T01:05:35;97110.53;;;17.95;61.34
55263;BME280;41125;48.752;9.168;2022-07-03T01:06:10;97105.37;;;17.94;61.22
55263;BME280;41125;48.752;9.168;2022-07-03T01:06:53;97107.31;;;17.93;61.15
55263;BME280;41125;48.752;9.168;2022-07-03T01:08:47;97110.72;;;17.90;62.08
55263;BME280;41125;48.752;9.168;2022-07-03T01:09:21;97109.12;;;17.89;61.49
55263;BME280;41125;48.752;9.168;2022-07-03T01:10:47;97107.66;;;17.92;61.33
55263;BME280;41125;48.752;9.168;2022-07-03T01:11:25;97118.63;;;17.92;61.56
55263;BME280;41125;48.752;9.168;2022-07-03T01:12:02;97110.72;;;17.90;61.46
55263;BME280;41125;48.752;9.168;2022-07-03T01:13:51;97107.50;;;17.88;61.57
55263;BME280;41125;48.752;9.168;2022-07-03T01:14:35;97108.47;;;17.92;61.53
55263;BME280;41125;48.752;9.168;2022-07-03T01:15:24;97111.53;;;17.91;61.30
55263;BME280;41125;48.752;9.168;2022-07-03T01:17:03;97113.75;;;17.97;61.65
55263;BME280;41125;48.752;9.168;2022-07-03T01:17:37;97099.22;;;17.97;61.01
55263;BME280;41125;48.752;9.168;2022-07-03T01:19:02;97096.81;;;17.95;61.45
55263;BME280;41125;48.752;9.168;2022-07-03T01:19:41;97095.19;;;17.94;61.08
55263;BME280;41125;48.752;9.168;2022-07-03T01:20:12;97094.06;;;17.95;61.33
55263;BME280;41125;48.752;9.168;2022-07-03T01:20:46;97088.56;;;17.95;61.10
55263;BME280;41125;48.752;9.168;2022-07-03T01:21:34;97098.28;;;17.93;61.50
55263;BME280;41125;48.752;9.168;2022-07-03T01:23:24;97102.31;;;17.95;61.21
55263;BME280;41125;48.752;9.168;2022-07-03T01:24:16;97100.03;;;17.97;61.57
55263;BME280;41125;48.752;9.168;2022-07-03T01:25:49;97104.56;;;17.93;61.91
55263;BME280;41125;48.752;9.168;2022-07-03T01:26:20;97102.97;;;17.92;61.77
55263;BME280;41125;48.752;9.168;2022-07-03T01:27:03;97105.25;;;17.90;61.85
55263;BME280;41125;48.752;9.168;2022-07-03T01:28:32;97096.53;;;17.88;61.63
55263;BME280;41125;48.752;9.168;2022-07-03T01:29:09;97103.16;;;17.87;61.55
55263;BME280;41125;48.752;9.168;2022-07-03T01:29:56;97090.25;;;17.88;61.87
55263;BME280;41125;48.752;9.168;2022-07-03T01:30:30;97098.16;;;17.89;61.42
55263;BME280;41125;48.752;9.168;2022-07-03T01:31:02;97100.56;;;17.91;61.86
55263;BME280;41125;48.752;9.168;2022-07-03T01:31:34;97099.75;;;17.90;61.92
55263;BME280;41125;48.752;9.168;2022-07-03T01:32:08;97093.12;;;17.91;61.79
55263;BME280;41125;48.752;9.168;2022-07-03T01:32:41;97096.34;;;17.93;61.44
55263;BME280;41125;48.752;9.168;2022-07-03T01:33:19;97096.69;;;17.92;61.85
55263;BME280;41125;48.752;9.168;2022-07-03T01:33:51;97103.31;;;17.91;61.74
55263;BME280;41125;48.752;9.168;2022-07-03T01:34:22;97096.53;;;17.88;61.90
55263;BME280;41125;48.752;9.168;2022-07-03T01:34:56;97095.88;;;17.91;61.63
55263;BME280;41125;48.752;9.168;2022-07-03T01:35:33;97094.59;;;17.89;61.85
55263;BME280;41125;48.752;9.168;2022-07-03T01:36:07;97098.16;;;17.89;61.73
55263;BME280;41125;48.752;9.168;2022-07-03T01:36:38;97096.19;;;17.90;62.16
55263;BME280;41125;48.752;9.168;2022-07-03T01:37:11;97094.94;;;17.87;61.78
55263;BME280;41125;48.752;9.168;2022-07-03T01:37:44;97094.94;;;17.87;61.79
55263;BME280;41125;48.752;9.168;2022-07-03T01:38:15;97094.47;;;17.85;61.77
55263;BME280;41125;48.752;9.168;2022-07-03T01:38:47;97096.41;;;17.85;61.93
55263;BME280;41125;48.752;9.168;2022-07-03T01:39:19;97087.38;;;17.84;61.99
55263;BME280;41125;48.752;9.168;2022-07-03T01:39:53;97089.63;;;17.82;62.17
55263;BME280;41125;48.752;9.168;2022-07-03T01:40:24;97095.25;;;17.86;62.03
55263;BME280;41125;48.752;9.168;2022-07-03T01:40:58;97091.72;;;17.85;61.87
55263;BME280;41125;48.752;9.168;2022-07-03T01:41:29;97087.84;;;17.86;62.11
55263;BME280;41125;48.752;9.168;2022-07-03T01:42:00;97095.25;;;17.86;61.95
55263;BME280;41125;48.752;9.168;2022-07-03T01:42:33;97093.31;;;17.86;62.13
55263;BME280;41125;48.752;9.168;2022-07-03T01:43:06;97090.56;;;17.86;61.92
55263;BME280;41125;48.752;9.168;2022-07-03T01:43:39;97091.72;;;17.85;61.96
55263;BME280;41125;48.752;9.168;2022-07-03T01:44:11;97094.94;;;17.87;61.82
55263;BME280;41125;48.752;9.168;2022-07-03T01:44:42;97096.06;;;17.86;61.73
55263;BME280;41125;48.752;9.168;2022-07-03T01:45:14;97090.56;;;17.86;62.04
55263;BME280;41125;48.752;9.168;2022-07-03T01:45:46;97085.41;;;17.85;62.01
55263;BME280;41125;48.752;9.168;2022-07-03T01:46:18;97090.56;;;17.86;62.46
55263;BME280;41125;48.752;9.168;2022-07-03T01:46:49;97101.56;;;17.86;62.21
55263;BME280;41125;48.752;9.168;2022-07-03T01:47:22;97098.81;;;17.86;62.02
55263;BME280;41125;48.752;9.168;2022-07-03T01:47:56;97094.47;;;17.85;62.22
55263;BME280;41125;48.752;9.168;2022-07-03T01:48:28;97091.72;;;17.85;62.26
55263;BME280;41125;48.752;9.168;2022-07-03T01:49:00;97098.34;;;17.84;62.09
55263;BME280;41125;48.752;9.168;2022-07-03T01:49:32;97094.00;;;17.83;62.14
55263;BME280;41125;48.752;9.168;2022-07-03T01:50:03;97099.47;;;17.83;62.29
55263;BME280;41125;48.752;9.168;2022-07-03T01:50:34;97098.69;;;17.83;62.12
55263;BME280;41125;48.752;9.168;2022-07-03T01:51:07;97097.06;;;17.82;62.40
55263;BME280;41125;48.752;9.168;2022-07-03T01:51:39;97099.00;;;17.81;62.19
55263;BME280;41125;48.752;9.168;2022-07-03T01:52:12;97096.25;;;17.81;62.15
55263;BME280;41125;48.752;9.168;2022-07-03T01:52:45;97100.16;;;17.80;62.37
55263;BME280;41125;48.752;9.168;2022-07-03T01:53:20;97100.16;;;17.80;62.24
55263;BME280;41125;48.752;9.168;2022-07-03T01:53:54;97100.16;;;17.80;62.69
55263;BME280;41125;48.752;9.168;2022-07-03T01:54:25;97097.41;;;17.80;62.95
55263;BME280;41125;48.752;9.168;2022-07-03T01:54:58;97098.53;;;17.79;62.80
55263;BME280;41125;48.752;9.168;2022-07-03T01:55:31;97098.06;;;17.77;62.89
55263;BME280;41125;48.752;9.168;2022-07-03T01:56:03;97096.13;;;17.78;62.73
55263;BME280;41125;48.752;9.168;2022-07-03T01:56:34;97094.19;;;17.78;62.93
55263;BME280;41125;48.752;9.168;2022-07-03T01:57:05;97098.88;;;17.78;62.58
55263;BME280;41125;48.752;9.168;2022-07-03T01:57:37;97102.75;;;17.77;62.86
55263;BME280;41125;48.752;9.168;2022-07-03T01:58:11;97100.81;;;17.77;62.91
55263;BME280;41125;48.752;9.168;2022-07-03T01:58:43;97096.47;;;17.76;62.93
55263;BME280;41125;48.752;9.168;2022-07-03T01:59:17;97096.47;;;17.76;62.60
55263;BME280;41125;48.752;9.168;2022-07-03T01:59:48;97100.81;;;17.77;62.83
55263;BME280;41125;48.752;9.168;2022-07-03T02:00:20;97092.09;;;17.75;62.48
55263;BME280;41125;48.752;9.168;2022-07-03T02:01:02;97097.59;;;17.75;62.59
55263;BME280;41125;48.752;9.168;2022-07-03T02:02:32;97088.22;;;17.76;62.59
55263;BME280;41125;48.752;9.168;2022-07-03T02:03:04;97090.16;;;17.75;62.76
55263;BME280;41125;48.752;9.168;2022-07-03T02:03:39;97096.47;;;17.76;63.03
55263;BME280;41125;48.752;9.168;2022-07-03T02:05:09;97088.09;;;17.72;62.83
55263;BME280;41125;48.752;9.168;2022-07-03T02:05:42;97088.09;;;17.72;63.18
55263;BME280;41125;48.752;9.168;2022-07-03T02:06:18;97087.28;;;17.72;63.00
55263;BME280;41125;48.752;9.168;2022-07-03T02:08:50;97087.16;;;17.68;63.39
55263;BME280;41125;48.752;9.168;2022-07-03T02:09:27;97087.94;;;17.69;63.18
55263;BME280;41125;48.752;9.168;2022-07-03T02:10:06;97086.34;;;17.68;63.40
55263;BME280;41125;48.752;9.168;2022-07-03T02:10:39;97090.69;;;17.69;63.38
55263;BME280;41125;48.752;9.168;2022-07-03T02:11:18;97086.34;;;17.68;63.51
55263;BME280;41125;48.752;9.168;2022-07-03T02:11:52;97087.16;;;17.68;63.19
55263;BME280;41125;48.752;9.168;2022-07-03T02:12:24;97087.16;;;17.68;63.06
55263;BME280;41125;48.752;9.168;2022-07-03T02:13:02;97086.00;;;17.69;63.49
55263;BME280;41125;48.752;9.168;2022-07-03T02:13:59;97093.44;;;17.69;64.55
55263;BME280;41125;48.752;9.168;2022-07-03T02:14:37;97081.66;;;17.68;63.52
55263;BME280;41125;48.752;9.168;2022-07-03T02:15:10;97086.34;;;17.68;63.36
55263;BME280;41125;48.752;9.168;2022-07-03T02:15:43;97087.16;;;17.68;63.95
55263;BME280;41125;48.752;9.168;2022-07-03T02:16:16;97086.34;;;17.68;64.01
55263;BME280;41125;48.752;9.168;2022-07-03T02:16:59;97085.53;;;17.67;63.76
55263;BME280;41125;48.752;9.168;2022-07-03T02:17:36;97087.50;;;17.67;63.65
55263;BME280;41125;48.752;9.168;2022-07-03T02:19:04;97087.03;;;17.65;64.62
55263;BME280;41125;48.752;9.168;2022-07-03T02:19:52;97092.03;;;17.63;64.05
55263;BME280;41125;48.752;9.168;2022-07-03T02:20:26;97086.53;;;17.63;63.87
55263;BME280;41125;48.752;9.168;2022-07-03T02:21:03;97074.41;;;17.64;63.62
55263;BME280;41125;48.752;9.168;2022-07-03T02:21:35;97081.53;;;17.65;64.25
55263;BME280;41125;48.752;9.168;2022-07-03T02:22:12;97085.41;;;17.64;64.14
55263;BME280;41125;48.752;9.168;2022-07-03T02:22:47;97089.28;;;17.63;63.85
55263;BME280;41125;48.752;9.168;2022-07-03T02:23:23;97086.53;;;17.63;63.86
55263;BME280;41125;48.752;9.168;2022-07-03T02:24:53;97083.78;;;17.63;63.64
55263;BME280;41125;48.752;9.168;2022-07-03T02:25:39;97086.53;;;17.63;64.03
55263;BME280;41125;48.752;9.168;2022-07-03T02:26:11;97077.81;;;17.61;65.46
55263;BME280;41125;48.752;9.168;2022-07-03T02:26:50;97089.94;;;17.60;64.30
55263;BME280;41125;48.752;9.168;2022-07-03T02:27:25;97086.06;;;17.61;64.37
55263;BME280;41125;48.752;9.168;2022-07-03T02:28:58;97079.78;;;17.60;64.16
55263;BME280;41125;48.752;9.168;2022-07-03T02:29:36;97080.56;;;17.61;64.00
55263;BME280;41125;48.752;9.168;2022-07-03T02:30:12;97075.09;;;17.61;63.75
55263;BME280;41125;48.752;9.168;2022-07-03T02:30:44;97076.22;;;17.60;63.63
55263;BME280;41125;48.752;9.168;2022-07-03T02:31:21;97080.56;;;17.61;63.73
55263;BME280;41125;48.752;9.168;2022-07-03T02:31:57;97079.78;;;17.60;63.70
55263;BME280;41125;48.752;9.168;2022-07-03T02:32:33;97081.72;;;17.60;64.18
55263;BME280;41125;48.752;9.168;2022-07-03T02:33:06;97073.47;;;17.60;64.14
55263;BME280;41125;48.752;9.168;2022-07-03T02:33:38;97076.56;;;17.58;64.00
55263;BME280;41125;48.752;9.168;2022-07-03T02:34:16;97074.63;;;17.59;64.23
55263;BME280;41125;48.752;9.168;2022-07-03T02:34:49;97079.28;;;17.58;64.56
55263;BME280;41125;48.752;9.168;2022-07-03T02:35:29;97079.63;;;17.57;64.82
55263;BME280;41125;48.752;9.168;2022-07-03T02:36:00;97083.50;;;17.56;65.39
55263;BME280;41125;48.752;9.168;2022-07-03T02:36:32;97076.75;;;17.53;64.55
55263;BME280;41125;48.752;9.168;2022-07-03T02:37:10;97080.63;;;17.52;65.01
55263;BME280;41125;48.752;9.168;2022-07-03T02:37:50;97089.31;;;17.54;64.34
55263;BME280;41125;48.752;9.168;2022-07-03T02:38:24;97082.72;;;17.55;64.37
55263;BME280;41125;48.752;9.168;2022-07-03T02:38:56;97079.16;;;17.55;64.36
55263;BME280;41125;48.752;9.168;2022-07-03T02:40:22;97081.09;;;17.54;64.35
55263;BME280;41125;48.752;9.168;2022-07-03T02:40:57;97078.69;;;17.53;64.56
55263;BME280;41125;48.752;9.168;2022-07-03T02:41:39;97083.38;;;17.52;64.59
55263;BME280;41125;48.752;9.168;2022-07-03T02:42:30;97077.88;;;17.52;64.50
55263;BME280;41125;48.752;9.168;2022-07-03T02:44:53;97085.78;;;17.54;64.65
55263;BME280;41125;48.752;9.168;2022-07-03T02:45:29;97084.16;;;17.53;64.84
55263;BME280;41125;48.752;9.168;2022-07-03T02:46:14;97087.25;;;17.51;65.20
55263;BME280;41125;48.752;9.168;2022-07-03T02:47:19;97083.22;;;17.49;65.84
55263;BME280;41125;48.752;9.168;2022-07-03T02:48:44;97087.09;;;17.48;65.27
55263;BME280;41125;48.752;9.168;2022-07-03T02:49:22;97086.31;;;17.47;64.70
55263;BME280;41125;48.752;9.168;2022-07-03T02:50:05;97083.88;;;17.46;65.74
55263;BME280;41125;48.752;9.168;2022-07-03T02:50:39;97082.28;;;17.45;65.19
55263;BME280;41125;48.752;9.168;2022-07-03T02:51:13;97087.75;;;17.45;64.87
55263;BME280;41125;48.752;9.168;2022-07-03T02:51:50;97080.66;;;17.43;64.79
55263;BME280;41125;48.752;9.168;2022-07-03T02:52:31;97083.88;;;17.46;65.14
55263;BME280;41125;48.752;9.168;2022-07-03T02:53:16;97084.69;;;17.46;64.67
55263;BME280;41125;48.752;9.168;2022-07-03T02:53:53;97089.37;;;17.46;64.91
55263;BME280;41125;48.752;9.168;2022-07-03T02:54:31;97089.37;;;17.46;64.96
55263;BME280;41125;48.752;9.168;2022-07-03T02:56:14;97083.41;;;17.43;65.34
55263;BME280;41125;48.752;9.168;2022-07-03T02:57:39;97085.69;;;17.41;65.29
55263;BME280;41125;48.752;9.168;2022-07-03T02:58:27;97088.44;;;17.41;65.12
55263;BME280;41125;48.752;9.168;2022-07-03T02:59:09;97088.44;;;17.41;64.98
55263;BME280;41125;48.752;9.168;2022-07-03T03:00:42;97086.34;;;17.38;65.57
55263;BME280;41125;48.752;9.168;2022-07-03T03:01:38;97089.75;;;17.35;66.06
55263;BME280;41125;48.752;9.168;2022-07-03T03:02:14;97091.69;;;17.35;65.62
55263;BME280;41125;48.752;9.168;2022-07-03T03:02:57;97095.22;;;17.35;65.83
55263;BME280;41125;48.752;9.168;2022-07-03T03:03:29;97093.62;;;17.34;65.25
55263;BME280;41125;48.752;9.168;2022-07-03T03:04:12;97093.62;;;17.34;66.14
55263;BME280;41125;48.752;9.168;2022-07-03T03:04:45;97092.81;;;17.34;65.36
55263;BME280;41125;48.752;9.168;2022-07-03T03:05:28;97090.56;;;17.36;65.41
55263;BME280;41125;48.752;9.168;2022-07-03T03:06:04;97102.31;;;17.36;65.31
55263;BME280;41125;48.752;9.168;2022-07-03T03:06:41;97096.84;;;17.36;65.23
55263;BME280;41125;48.752;9.168;2022-07-03T03:07:16;97093.28;;;17.36;65.36
55263;BME280;41125;48.752;9.168;2022-07-03T03:09:31;97097.50;;;17.33;65.89
55263;BME280;41125;48.752;9.168;2022-07-03T03:10:03;97096.69;;;17.33;65.60
55263;BME280;41125;48.752;9.168;2022-07-03T03:10:34;97101.41;;;17.32;65.77
55263;BME280;41125;48.752;9.168;2022-07-03T03:11:08;97099.44;;;17.33;65.47
55263;BME280;41125;48.752;9.168;2022-07-03T03:11:43;97097.50;;;17.33;65.76
55263;BME280;41125;48.752;9.168;2022-07-03T03:12:15;97106.91;;;17.32;65.43
55263;BME280;41125;48.752;9.168;2022-07-03T03:13:02;97101.41;;;17.32;65.92
55263;BME280;41125;48.752;9.168;2022-07-03T03:13:36;97102.53;;;17.31;65.68
55263;BME280;41125;48.752;9.168;2022-07-03T03:14:11;97096.25;;;17.31;65.54
55263;BME280;41125;48.752;9.168;2022-07-03T03:14:44;97099.00;;;17.31;65.92
55263;BME280;41125;48.752;9.168;2022-07-03T03:15:15;97103.69;;;17.30;65.93
55263;BME280;41125;48.752;9.168;2022-07-03T03:16:05;97103.69;;;17.30;65.60
55263;BME280;41125;48.752;9.168;2022-07-03T03:16:45;97106.09;;;17.32;65.60
55263;BME280;41125;48.752;9.168;2022-07-03T03:17:17;97100.59;;;17.32;65.82
55263;BME280;41125;48.752;9.168;2022-07-03T03:17:49;97106.91;;;17.32;65.99
55263;BME280;41125;48.752;9.168;2022-07-03T03:18:21;97105.28;;;17.31;66.26
55263;BME280;41125;48.752;9.168;2022-07-03T03:18:53;97105.28;;;17.31;66.00
55263;BME280;41125;48.752;9.168;2022-07-03T03:19:24;97100.47;;;17.28;65.92
55263;BME280;41125;48.752;9.168;2022-07-03T03:19:56;97105.94;;;17.28;66.16
55263;BME280;41125;48.752;9.168;2022-07-03T03:20:29;97100.47;;;17.28;66.67
55263;BME280;41125;48.752;9.168;2022-07-03T03:21:00;97102.72;;;17.26;66.00
55263;BME280;41125;48.752;9.168;2022-07-03T03:21:34;97106.28;;;17.27;65.94
55263;BME280;41125;48.752;9.168;2022-07-03T03:22:28;97101.12;;;17.25;66.29
55263;BME280;41125;48.752;9.168;2022-07-03T03:23:55;97106.13;;;17.23;66.16
55263;BME280;41125;48.752;9.168;2022-07-03T03:24:27;97108.88;;;17.23;66.20
55263;BME280;41125;48.752;9.168;2022-07-03T03:24:58;97103.38;;;17.23;66.40
55263;BME280;41125;48.752;9.168;2022-07-03T03:25:31;97110.81;;;17.23;66.21
55263;BME280;41125;48.752;9.168;2022-07-03T03:26:08;97110.00;;;17.22;66.37
55263;BME280;41125;48.752;9.168;2022-07-03T03:26:39;97111.13;;;17.21;66.87
55263;BME280;41125;48.752;9.168;2022-07-03T03:27:10;97102.44;;;17.19;66.50
55263;BME280;41125;48.752;9.168;2022-07-03T03:27:41;97116.16;;;17.19;66.88
55263;BME280;41125;48.752;9.168;2022-07-03T03:28:13;97109.06;;;17.18;66.80
55263;BME280;41125;48.752;9.168;2022-07-03T03:28:45;97107.44;;;17.17;66.46